Terminal Aerodrome Forecast
Issued by NWS

Home | Current Version | Previous Version | Graphics & Text | Print | Product List | Glossary On
Versions: 1 2 3 4 5 6 7 8 9 10 11 12 13 14 15
000
FTUS43 KMPX 252000 AAA
TAFRNH
TAF AMD
KRNH 252016Z 2520/2618 20006KT P6SM OVC011
      TEMPO 2520/2522 2SM -SN OVC015
     FM260400 04005KT 6SM BR OVC015
      TEMPO 2606/2610 5SM -SN
     FM261000 36007KT P6SM OVC015=

USA.gov is the U.S. government's official web portal to all federal, state and local government web resources and services.